METAR Data
IDs: Format: Raw Decoded Include TAF

Data at: 0202 UTC 12 May 2021

KHUF 120153Z 02009KT 10SM CLR 11/01 A3035 RMK AO2 SLP279 T01060006
KHUF 120053Z 03006KT 10SM CLR 12/01 A3032 RMK AO2 SLP268 T01170011
KHUF 112353Z 03009KT 10SM CLR 13/01 A3029 RMK AO2 SLP257 T01280011 10156 20128 53004
KHUF 112253Z 02007KT 10SM FEW060 14/02 A3028 RMK AO2 SLP253 T01390017
KHUF 112153Z 04008KT 10SM SCT065 14/00 A3026 RMK AO2 SLP249 T01440000
KHUF 112053Z 03009G18KT 10SM CLR 14/01 A3027 RMK AO2 SLP252 T01440006 55007
KHUF 111953Z 07009KT 10SM CLR 14/01 A3027 RMK AO2 SLP250 T01440011
KHUF 111853Z 02014G20KT 10SM CLR 15/01 A3028 RMK AO2 SLP256 T01500011
KHUF 111753Z 02010G19KT 10SM CLR 14/01 A3030 RMK AO2 SLP260 T01440011 10150 20083 58002
KHUF 111653Z 03012G20KT 10SM CLR 14/01 A3031 RMK AO2 SLP266 T01390011
KHUF 111553Z 04012G17KT 10SM CLR 14/01 A3030 RMK AO2 SLP261 T01390006
KHUF 111453Z 04011KT 10SM CLR 12/01 A3030 RMK AO2 SLP263 T01220006 51017
KHUF 111353Z 06007KT 10SM CLR 11/02 A3030 RMK AO2 SLP261 T01110022
KHUF 111253Z 05011KT 10SM BKN047 09/02 A3028 RMK AO2 SLP254 T00890022
KHUF 111153Z 03006KT 10SM FEW050 OVC100 08/05 A3025 RMK AO2 SLP245 T00830050 10083 20067 53014
KHUF 111053Z 01005KT 10SM BKN060 08/06 A3023 RMK AO2 SLP239 T00780056
KHUF 110953Z 35003KT 10SM BKN060 OVC090 08/06 A3022 RMK AO2 SLP236 T00830061
KHUF 110853Z 01004KT 10SM OVC060 08/07 A3021 RMK AO2 SLP231 T00830067 53008
KHUF 110753Z 00000KT 9SM BKN090 07/06 A3019 RMK AO2 SLP223 T00720061
KHUF 110653Z 02003KT 10SM CLR 08/07 A3018 RMK AO2 SLP220 T00830067
KHUF 110553Z 00000KT 10SM OVC060 08/06 A3019 RMK AO2 SLP222 T00780061 10139 20067 53006
KHUF 110453Z 01003KT 10SM SCT060 07/06 A3017 RMK AO2 SLP217 T00720061 401670011
KHUF 110353Z 00000KT 10SM CLR 08/07 A3016 RMK AO2 SLP215 T00830067
KHUF 110253Z 00000KT 10SM CLR 09/07 A3017 RMK AO2 SLP216 T00890067 53014
KHUF 110153Z 22004KT 10SM CLR 12/06 A3014 RMK AO2 SLP208 T01170056
KHUF 110053Z 21004KT 10SM CLR 13/06 A3013 RMK AO2 SLP204 T01280056
KHUF 102353Z 20004KT 10SM CLR 14/06 A3012 RMK AO2 SLP202 T01390056 10167 20139 56003
KHUF 102253Z 19006KT 10SM CLR 15/06 A3012 RMK AO2 SLP202 T01500056
KHUF 102153Z 18004KT 10SM SCT060 16/03 A3012 RMK AO2 SLP201 T01610028
KHUF 102053Z 00000KT 10SM FEW055 16/02 A3013 RMK AO2 SLP205 T01610017 58007
KHUF 101953Z 00000KT 10SM CLR 16/02 A3014 RMK AO2 SLP208 T01610022
KHUF 101853Z 03006KT 10SM CLR 16/03 A3015 RMK AO2 SLP210 T01610033
KHUF 101753Z 36007KT 10SM CLR 16/03 A3015 RMK AO2 SLP211 T01560033 10156 20033 58001
KHUF 101653Z VRB03KT 10SM CLR 15/04 A3016 RMK AO2 SLP214 T01500044
KHUF 101553Z 10SM CLR 14/04 A3016 RMK AO2 SLP216 T01390044
KHUF 101453Z 29003KT 10SM CLR 12/03 A3016 RMK AO2 SLP213 T01170033 50005